Terminal Aerodrome Forecast
Issued by NWS

Home | Current Version | Previous Version | Text Only | Print | Product List | Glossary On
Versions: 1 2 3 4 5 6 7 8 9 10 11 12 13 14 15 16 17 18 19
000
FTUS41 KGYX 031731
TAFAUG
TAF
KAUG 031731Z 0318/0418 19010G20KT P6SM SKC
     FM040000 20008KT P6SM SCT050 BKN200
     FM040600 19005KT 4SM -SHRA BR OVC020
     FM041000 23007KT P6SM SCT060=

USA.gov is the U.S. government's official web portal to all federal, state and local government web resources and services.